createdAt,value
2018-07-21T00:00:03.891Z,26.73
2018-07-21T00:00:30.036Z,26.68
2018-07-21T00:00:56.178Z,26.68
2018-07-21T00:01:22.354Z,26.78
2018-07-21T00:01:48.504Z,26.8
2018-07-21T00:02:14.681Z,26.77
2018-07-21T00:02:40.786Z,26.68
2018-07-21T00:03:06.948Z,26.71
2018-07-21T00:03:33.092Z,26.74
2018-07-21T00:03:59.236Z,26.68
2018-07-21T00:04:25.391Z,26.7
2018-07-21T00:04:51.514Z,26.65
2018-07-21T00:05:17.654Z,26.63
2018-07-21T00:05:43.817Z,26.6
2018-07-21T00:06:09.953Z,26.58
2018-07-21T00:06:36.094Z,26.6
2018-07-21T00:07:02.240Z,26.65
2018-07-21T00:07:28.377Z,26.65
2018-07-21T00:07:54.509Z,26.51
2018-07-21T00:08:20.675Z,26.65
2018-07-21T00:08:46.837Z,26.68
2018-07-21T00:09:12.969Z,26.63
2018-07-21T00:09:39.112Z,26.6
2018-07-21T00:10:05.276Z,26.66
2018-07-21T00:10:31.429Z,26.63
2018-07-21T00:10:57.598Z,26.6
2018-07-21T00:11:23.739Z,26.51
2018-07-21T00:11:49.874Z,26.52
2018-07-21T00:12:16.034Z,26.48
2018-07-21T00:12:42.178Z,26.43
2018-07-21T00:13:08.348Z,26.51
2018-07-21T00:13:34.512Z,26.41
2018-07-21T00:14:00.650Z,26.41
2018-07-21T00:14:26.791Z,26.51
2018-07-21T00:14:52.929Z,26.48
2018-07-21T00:15:19.097Z,26.56
2018-07-21T00:15:45.265Z,26.47
2018-07-21T00:16:11.398Z,26.41
2018-07-21T00:16:37.540Z,26.47
2018-07-21T00:17:03.706Z,26.4
2018-07-21T00:17:29.878Z,26.34
2018-07-21T00:17:56.017Z,26.37
2018-07-21T00:18:22.180Z,26.38
2018-07-21T00:18:48.332Z,26.48
2018-07-21T00:19:14.501Z,26.43
2018-07-21T00:19:40.641Z,26.38
2018-07-21T00:20:06.792Z,26.44
2018-07-21T00:20:32.930Z,26.38
2018-07-21T00:20:59.075Z,26.29
2018-07-21T00:21:25.216Z,26.22
2018-07-21T00:21:51.383Z,26.18
2018-07-21T00:22:17.530Z,26.16
2018-07-21T00:22:43.688Z,26.16
2018-07-21T00:23:09.818Z,26.15
2018-07-21T00:23:35.980Z,26.05
2018-07-21T00:24:02.120Z,26.06
2018-07-21T00:24:28.263Z,26.02
2018-07-21T00:24:54.404Z,25.99
2018-07-21T00:25:20.570Z,25.95
2018-07-21T00:25:46.722Z,25.98
2018-07-21T00:26:12.880Z,25.98
2018-07-21T00:26:39.044Z,26.02
2018-07-21T00:27:05.194Z,26
2018-07-21T00:27:31.328Z,26.06
2018-07-21T00:27:57.464Z,26.18
2018-07-21T00:28:23.603Z,26.06
2018-07-21T00:28:49.756Z,26.13
2018-07-21T00:29:15.900Z,26.16
2018-07-21T00:29:42.058Z,26.16
2018-07-21T00:30:08.205Z,26.16
2018-07-21T00:30:34.338Z,26.15
2018-07-21T00:31:00.483Z,26.16
2018-07-21T00:31:26.631Z,26.16
2018-07-21T00:31:52.771Z,26.16
2018-07-21T00:32:18.917Z,26.15
2018-07-21T00:32:45.059Z,26.15
2018-07-21T00:33:11.205Z,26.25
2018-07-21T00:33:37.366Z,26.26
2018-07-21T00:34:03.510Z,26.23
2018-07-21T00:34:29.652Z,26.34
2018-07-21T00:34:55.821Z,26.28
2018-07-21T00:35:21.981Z,26.26
2018-07-21T00:35:48.142Z,26.4
2018-07-21T00:36:14.277Z,26.29
2018-07-21T00:36:40.419Z,26.29
2018-07-21T00:37:06.560Z,26.26
2018-07-21T00:37:32.708Z,26.34
2018-07-21T00:37:58.882Z,26.26
2018-07-21T00:38:25.045Z,26.4
2018-07-21T00:38:51.186Z,26.33
2018-07-21T00:39:17.325Z,26.33
2018-07-21T00:39:43.466Z,26.41
2018-07-21T00:40:09.630Z,26.41
2018-07-21T00:40:35.772Z,26.4
2018-07-21T00:41:01.925Z,26.47
2018-07-21T00:41:28.061Z,26.41
2018-07-21T00:41:54.193Z,26.41
2018-07-21T00:42:20.358Z,26.38
2018-07-21T00:42:46.503Z,26.41
2018-07-21T00:43:12.710Z,26.47
2018-07-21T00:43:38.843Z,26.44
2018-07-21T00:44:04.981Z,26.4
2018-07-21T00:44:31.148Z,26.4
2018-07-21T00:44:57.292Z,26.41
2018-07-21T00:45:23.424Z,26.41
2018-07-21T00:45:49.612Z,26.48
2018-07-21T00:46:15.757Z,26.43
2018-07-21T00:46:41.894Z,26.41
2018-07-21T00:47:08.080Z,26.41
2018-07-21T00:47:34.223Z,26.4
2018-07-21T00:48:00.375Z,26.45
2018-07-21T00:48:26.519Z,26.4
2018-07-21T00:48:52.660Z,26.34
2018-07-21T00:49:18.800Z,26.41
2018-07-21T00:49:44.942Z,26.4
2018-07-21T00:50:11.104Z,26.43
2018-07-21T00:50:37.246Z,26.4
2018-07-21T00:51:03.390Z,26.38
2018-07-21T00:51:29.533Z,26.43
2018-07-21T00:51:55.675Z,26.37
2018-07-21T00:52:21.810Z,26.29
2018-07-21T00:52:47.954Z,26.4
2018-07-21T00:53:14.119Z,26.48
2018-07-21T00:53:40.252Z,26.36
2018-07-21T00:54:06.395Z,26.38
2018-07-21T00:54:32.533Z,26.36
2018-07-21T00:54:58.665Z,26.36
2018-07-21T00:55:24.813Z,26.43
2018-07-21T00:55:50.946Z,26.48
2018-07-21T00:56:17.091Z,26.4
2018-07-21T00:56:43.254Z,26.37
2018-07-21T00:57:09.423Z,26.45
2018-07-21T00:57:35.544Z,26.36
2018-07-21T00:58:01.736Z,26.43
2018-07-21T00:58:27.879Z,26.38
2018-07-21T00:58:54.020Z,26.37
2018-07-21T00:59:20.158Z,26.31
2018-07-21T00:59:46.295Z,26.41
2018-07-21T01:00:12.434Z,26.4
2018-07-21T01:00:38.571Z,26.38
2018-07-21T01:01:04.713Z,26.43
2018-07-21T01:01:30.855Z,26.37
2018-07-21T01:01:57.023Z,26.41
2018-07-21T01:02:23.163Z,26.38
2018-07-21T01:02:49.315Z,26.29
2018-07-21T01:03:15.453Z,26.26
2018-07-21T01:03:41.588Z,26.31
2018-07-21T01:04:07.736Z,26.28
2018-07-21T01:04:33.868Z,26.25
2018-07-21T01:05:00.014Z,26.29
2018-07-21T01:05:26.171Z,26.34
2018-07-21T01:05:52.305Z,26.25
2018-07-21T01:06:18.441Z,26.31
2018-07-21T01:06:44.588Z,26.26
2018-07-21T01:07:10.729Z,26.31
2018-07-21T01:07:36.865Z,26.33
2018-07-21T01:08:03.000Z,26.31
2018-07-21T01:08:29.135Z,26.29
2018-07-21T01:08:55.276Z,26.26
2018-07-21T01:09:21.418Z,26.29
2018-07-21T01:09:47.551Z,26.29
2018-07-21T01:10:13.699Z,26.28
2018-07-21T01:10:39.844Z,26.28
2018-07-21T01:11:06.023Z,26.26
2018-07-21T01:11:32.137Z,26.28
2018-07-21T01:11:58.280Z,26.15
2018-07-21T01:12:24.413Z,26.15
2018-07-21T01:12:50.562Z,26.16
2018-07-21T01:13:16.754Z,26.18
2018-07-21T01:13:42.896Z,26.13
2018-07-21T01:14:09.026Z,26.19
2018-07-21T01:14:35.169Z,26.28
2018-07-21T01:15:01.308Z,26.26
2018-07-21T01:15:27.468Z,26.16
2018-07-21T01:15:53.602Z,26.15
2018-07-21T01:16:19.743Z,26.18
2018-07-21T01:16:45.884Z,26.18
2018-07-21T01:17:12.029Z,26.15
2018-07-21T01:17:38.162Z,26.13
2018-07-21T01:18:04.311Z,26.15
2018-07-21T01:18:30.544Z,26.18
2018-07-21T01:18:56.685Z,26.07
2018-07-21T01:19:22.855Z,26.13
2018-07-21T01:19:48.998Z,26.13
2018-07-21T01:20:15.136Z,26.16
2018-07-21T01:20:41.301Z,26.09
2018-07-21T01:21:07.442Z,25.99
2018-07-21T01:21:33.585Z,25.98
2018-07-21T01:21:59.745Z,25.96
2018-07-21T01:22:25.880Z,25.99
2018-07-21T01:22:52.023Z,25.96
2018-07-21T01:23:18.160Z,25.98
2018-07-21T01:23:44.299Z,25.99
2018-07-21T01:24:10.437Z,26.07
2018-07-21T01:24:36.573Z,26.05
2018-07-21T01:25:02.722Z,26.02
2018-07-21T01:25:28.858Z,26
2018-07-21T01:25:55.030Z,25.98
2018-07-21T01:26:21.159Z,26
2018-07-21T01:26:47.304Z,26.02
2018-07-21T01:27:13.442Z,26.07
2018-07-21T01:27:39.609Z,26.05
2018-07-21T01:28:05.749Z,26.02
2018-07-21T01:28:31.889Z,25.99
2018-07-21T01:28:58.027Z,26
2018-07-21T01:29:24.171Z,25.96
2018-07-21T01:29:50.310Z,25.96
2018-07-21T01:30:16.453Z,25.96
2018-07-21T01:30:42.621Z,25.98
2018-07-21T01:31:08.737Z,25.95
2018-07-21T01:31:34.876Z,25.98
2018-07-21T01:32:01.018Z,25.91
2018-07-21T01:32:27.155Z,25.91
2018-07-21T01:32:53.318Z,25.93
2018-07-21T01:33:19.458Z,26
2018-07-21T01:33:45.598Z,25.98
2018-07-21T01:34:11.741Z,26.02
2018-07-21T01:34:37.892Z,25.93
2018-07-21T01:35:04.053Z,25.99
2018-07-21T01:35:30.185Z,25.98
2018-07-21T01:35:56.330Z,25.9
2018-07-21T01:36:22.463Z,25.9
2018-07-21T01:36:48.605Z,26.02
2018-07-21T01:37:14.765Z,25.93
2018-07-21T01:37:40.908Z,25.9
2018-07-21T01:38:07.072Z,25.96
2018-07-21T01:38:33.207Z,25.9
2018-07-21T01:38:59.348Z,25.9
2018-07-21T01:39:25.511Z,25.91
2018-07-21T01:39:51.651Z,25.93
2018-07-21T01:40:17.812Z,25.91
2018-07-21T01:40:43.954Z,25.93
2018-07-21T01:41:10.090Z,25.93
2018-07-21T01:41:36.235Z,25.91
2018-07-21T01:42:02.372Z,25.91
2018-07-21T01:42:28.530Z,26
2018-07-21T01:42:54.677Z,25.99
2018-07-21T01:43:20.810Z,25.98
2018-07-21T01:43:46.971Z,25.93
2018-07-21T01:44:13.114Z,25.95
2018-07-21T01:44:39.308Z,25.93
2018-07-21T01:45:05.449Z,25.93
2018-07-21T01:45:31.608Z,25.91
2018-07-21T01:45:57.749Z,25.91
2018-07-21T01:46:23.890Z,25.95
2018-07-21T01:46:50.034Z,25.9
2018-07-21T01:47:16.170Z,25.8
2018-07-21T01:47:42.308Z,25.83
2018-07-21T01:48:08.443Z,25.78
2018-07-21T01:48:34.601Z,25.78
2018-07-21T01:49:00.760Z,25.81
2018-07-21T01:49:27.782Z,25.8
2018-07-21T01:49:54.684Z,25.8
2018-07-21T01:50:20.854Z,25.75
2018-07-21T01:50:47.008Z,25.81
2018-07-21T01:51:13.165Z,25.83
2018-07-21T01:51:39.351Z,25.83
2018-07-21T01:52:05.495Z,25.8
2018-07-21T01:52:31.645Z,25.81
2018-07-21T01:52:57.789Z,25.81
2018-07-21T01:53:23.937Z,25.81
2018-07-21T01:53:50.075Z,25.83
2018-07-21T01:54:16.211Z,25.77
2018-07-21T01:54:42.352Z,25.78
2018-07-21T01:55:08.485Z,25.78
2018-07-21T01:55:34.632Z,25.84
2018-07-21T01:56:00.796Z,25.72
2018-07-21T01:56:26.929Z,25.75
2018-07-21T01:56:53.076Z,25.77
2018-07-21T01:57:19.212Z,25.58
2018-07-21T01:57:45.351Z,25.55
2018-07-21T01:58:11.511Z,25.73
2018-07-21T01:58:37.652Z,25.66
2018-07-21T01:59:03.794Z,25.68
2018-07-21T01:59:29.960Z,25.73
2018-07-21T01:59:56.095Z,25.77
2018-07-21T02:00:22.241Z,25.63
2018-07-21T02:00:48.438Z,25.66
2018-07-21T02:01:14.590Z,25.73
2018-07-21T02:01:40.752Z,25.7
2018-07-21T02:02:06.920Z,25.6
2018-07-21T02:02:33.082Z,25.73
2018-07-21T02:02:59.225Z,25.78
2018-07-21T02:03:25.384Z,25.78
2018-07-21T02:03:51.525Z,25.66
2018-07-21T02:04:17.664Z,25.66
2018-07-21T02:04:43.800Z,25.6
2018-07-21T02:05:09.940Z,25.73
2018-07-21T02:05:36.117Z,25.69
2018-07-21T02:06:02.276Z,25.68
2018-07-21T02:06:28.411Z,25.73
2018-07-21T02:06:54.552Z,25.72
2018-07-21T02:07:20.690Z,25.68
2018-07-21T02:07:46.828Z,25.63
2018-07-21T02:08:12.984Z,25.72
2018-07-21T02:08:39.120Z,25.73
2018-07-21T02:09:05.291Z,25.62
2018-07-21T02:09:31.456Z,25.78
2018-07-21T02:09:57.591Z,25.78
2018-07-21T02:10:23.765Z,25.63
2018-07-21T02:10:49.892Z,25.72
2018-07-21T02:11:16.060Z,25.69
2018-07-21T02:11:42.195Z,25.68
2018-07-21T02:12:08.364Z,25.65
2018-07-21T02:12:34.540Z,25.77
2018-07-21T02:13:00.669Z,25.6
2018-07-21T02:13:26.808Z,25.75
2018-07-21T02:13:52.972Z,25.72
2018-07-21T02:14:19.106Z,25.7
2018-07-21T02:14:45.253Z,25.62
2018-07-21T02:15:11.406Z,25.73
2018-07-21T02:15:37.568Z,25.77
2018-07-21T02:16:03.714Z,25.66
2018-07-21T02:16:29.852Z,25.7
2018-07-21T02:16:55.995Z,25.75
2018-07-21T02:17:22.155Z,25.72
2018-07-21T02:17:48.297Z,25.62
2018-07-21T02:18:14.433Z,25.69
2018-07-21T02:18:40.565Z,25.72
2018-07-21T02:19:06.707Z,25.73
2018-07-21T02:19:32.852Z,25.75
2018-07-21T02:19:59.011Z,25.68
2018-07-21T02:20:25.148Z,25.63
2018-07-21T02:20:51.295Z,25.72
2018-07-21T02:21:17.519Z,25.72
2018-07-21T02:21:43.672Z,25.75
2018-07-21T02:22:09.811Z,25.77
2018-07-21T02:22:35.998Z,25.75
2018-07-21T02:23:02.089Z,25.62
2018-07-21T02:23:28.230Z,25.6
2018-07-21T02:23:54.417Z,25.6
2018-07-21T02:24:20.558Z,25.7
2018-07-21T02:24:46.690Z,25.66
2018-07-21T02:25:12.834Z,25.69
2018-07-21T02:25:38.978Z,25.75
2018-07-21T02:26:05.114Z,25.6
2018-07-21T02:26:31.255Z,25.63
2018-07-21T02:26:57.400Z,25.69
2018-07-21T02:27:23.536Z,25.65
2018-07-21T02:27:49.675Z,25.63
2018-07-21T02:28:15.813Z,25.72
2018-07-21T02:28:41.953Z,25.66
2018-07-21T02:29:08.088Z,25.7
2018-07-21T02:29:34.253Z,25.77
2018-07-21T02:30:00.396Z,25.72
2018-07-21T02:30:26.562Z,25.7
2018-07-21T02:30:52.727Z,25.69
2018-07-21T02:31:18.889Z,25.6
2018-07-21T02:31:45.060Z,25.59
2018-07-21T02:32:11.227Z,25.63
2018-07-21T02:32:37.336Z,25.65
2018-07-21T02:33:03.508Z,25.62
2018-07-21T02:33:29.669Z,25.62
2018-07-21T02:33:55.802Z,25.6
2018-07-21T02:34:21.973Z,25.62
2018-07-21T02:34:48.109Z,25.75
2018-07-21T02:35:14.300Z,25.6
2018-07-21T02:35:40.439Z,25.62
2018-07-21T02:36:06.630Z,25.73
2018-07-21T02:36:32.768Z,25.72
2018-07-21T02:36:58.937Z,25.73
2018-07-21T02:37:25.077Z,25.65
2018-07-21T02:37:51.238Z,25.65
2018-07-21T02:38:17.450Z,25.72
2018-07-21T02:38:43.592Z,25.62
2018-07-21T02:39:09.733Z,25.75
2018-07-21T02:39:35.918Z,25.65
2018-07-21T02:40:02.107Z,25.63
2018-07-21T02:40:28.275Z,25.54
2018-07-21T02:40:54.437Z,25.59
2018-07-21T02:41:20.609Z,25.53
2018-07-21T02:41:46.816Z,25.48
2018-07-21T02:42:12.953Z,25.46
2018-07-21T02:42:39.116Z,25.53
2018-07-21T02:43:05.256Z,25.5
2018-07-21T02:43:31.412Z,25.48
2018-07-21T02:43:57.580Z,25.48
2018-07-21T02:44:23.745Z,25.58
2018-07-21T02:44:49.957Z,25.53
2018-07-21T02:45:16.098Z,25.54
2018-07-21T02:45:42.291Z,25.54
2018-07-21T02:46:08.392Z,25.59
2018-07-21T02:46:34.529Z,25.58
2018-07-21T02:47:00.690Z,25.51
2018-07-21T02:47:26.863Z,25.54
2018-07-21T02:47:53.020Z,25.6
2018-07-21T02:48:19.162Z,25.58
2018-07-21T02:48:45.335Z,25.58
2018-07-21T02:49:11.470Z,25.55
2018-07-21T02:49:37.629Z,25.54
2018-07-21T02:50:03.765Z,25.5
2018-07-21T02:50:29.925Z,25.48
2018-07-21T02:50:56.087Z,25.54
2018-07-21T02:51:22.247Z,25.54
2018-07-21T02:51:48.418Z,25.5
2018-07-21T02:52:14.602Z,25.51
2018-07-21T02:52:40.744Z,25.48
2018-07-21T02:53:06.897Z,25.47
2018-07-21T02:53:33.086Z,25.41
2018-07-21T02:53:59.222Z,25.46
2018-07-21T02:54:25.411Z,25.53
2018-07-21T02:54:51.558Z,25.48
2018-07-21T02:55:17.714Z,25.47
2018-07-21T02:55:43.875Z,25.55
2018-07-21T02:56:10.038Z,25.48
2018-07-21T02:56:36.204Z,25.51
2018-07-21T02:57:02.334Z,25.47
2018-07-21T02:57:28.503Z,25.55
2018-07-21T02:57:54.666Z,25.51
2018-07-21T02:58:20.836Z,25.51
2018-07-21T02:58:47.000Z,25.47
2018-07-21T02:59:13.140Z,25.55
2018-07-21T02:59:39.305Z,25.6
2018-07-21T03:00:05.449Z,25.43
2018-07-21T03:00:31.586Z,25.5
2018-07-21T03:00:57.744Z,25.54
2018-07-21T03:01:24.026Z,25.59
2018-07-21T03:01:50.215Z,25.5
2018-07-21T03:02:16.421Z,25.46
2018-07-21T03:02:42.759Z,25.47
2018-07-21T03:03:09.456Z,25.46
2018-07-21T03:03:35.759Z,25.43
2018-07-21T03:04:01.899Z,25.48
2018-07-21T03:04:28.041Z,25.54
2018-07-21T03:04:54.206Z,25.46
2018-07-21T03:05:20.367Z,25.48
2018-07-21T03:05:46.510Z,25.51
2018-07-21T03:06:12.697Z,25.46
2018-07-21T03:06:38.856Z,25.46
2018-07-21T03:07:05.020Z,25.41
2018-07-21T03:07:31.196Z,25.41
2018-07-21T03:07:57.335Z,25.43
2018-07-21T03:08:23.504Z,25.5
2018-07-21T03:08:49.657Z,25.48
2018-07-21T03:09:15.794Z,25.28
2018-07-21T03:09:41.943Z,25.26
2018-07-21T03:10:08.202Z,25.13
2018-07-21T03:10:34.236Z,25.14
2018-07-21T03:11:00.390Z,25.08
2018-07-21T03:11:26.562Z,25.04
2018-07-21T03:11:52.697Z,25.1
2018-07-21T03:12:18.855Z,25.18
2018-07-21T03:12:45.060Z,25.18
2018-07-21T03:13:11.224Z,25.17
2018-07-21T03:13:37.371Z,25.14
2018-07-21T03:14:03.509Z,25.23
2018-07-21T03:14:29.644Z,25.14
2018-07-21T03:14:55.814Z,25.25
2018-07-21T03:15:21.956Z,25.21
2018-07-21T03:15:48.089Z,25.1
2018-07-21T03:16:14.252Z,25.22
2018-07-21T03:16:40.391Z,25.16
2018-07-21T03:17:06.530Z,25.16
2018-07-21T03:17:32.695Z,25.21
2018-07-21T03:17:58.826Z,25.14
2018-07-21T03:18:24.983Z,25.03
2018-07-21T03:18:51.174Z,25.04
2018-07-21T03:19:17.364Z,25.04
2018-07-21T03:19:43.525Z,25.03
2018-07-21T03:20:09.694Z,25.07
2018-07-21T03:20:35.831Z,24.99
2018-07-21T03:21:01.994Z,24.99
2018-07-21T03:21:28.158Z,25.01
2018-07-21T03:21:54.321Z,24.93
2018-07-21T03:22:20.512Z,25.07
2018-07-21T03:22:46.706Z,25.14
2018-07-21T03:23:12.886Z,25.07
2018-07-21T03:23:38.995Z,25.1
2018-07-21T03:24:05.139Z,25.06
2018-07-21T03:24:31.300Z,25.01
2018-07-21T03:24:57.433Z,24.92
2018-07-21T03:25:23.581Z,24.89
2018-07-21T03:25:49.767Z,24.92
2018-07-21T03:26:15.958Z,24.84
2018-07-21T03:26:42.089Z,24.86
2018-07-21T03:27:08.233Z,24.77
2018-07-21T03:27:34.374Z,24.84
2018-07-21T03:28:00.515Z,24.88
2018-07-21T03:28:26.656Z,24.84
2018-07-21T03:28:52.819Z,24.89
2018-07-21T03:29:18.958Z,24.85
2018-07-21T03:29:45.096Z,24.89
2018-07-21T03:30:11.231Z,24.89
2018-07-21T03:30:37.404Z,24.91
2018-07-21T03:31:03.533Z,24.86
2018-07-21T03:31:29.766Z,24.89
2018-07-21T03:31:55.953Z,24.88
2018-07-21T03:32:22.145Z,24.91
2018-07-21T03:32:48.279Z,24.99
2018-07-21T03:33:15.232Z,24.89
2018-07-21T03:33:43.036Z,24.88
2018-07-21T03:34:10.761Z,25.01
2018-07-21T03:34:37.975Z,24.88
2018-07-21T03:35:04.110Z,24.98
2018-07-21T03:35:30.245Z,24.98
2018-07-21T03:35:56.396Z,24.98
2018-07-21T03:36:22.550Z,24.95
2018-07-21T03:36:48.690Z,24.98
2018-07-21T03:37:14.833Z,24.91
2018-07-21T03:37:40.998Z,24.88
2018-07-21T03:38:07.165Z,24.92
2018-07-21T03:38:33.295Z,24.89
2018-07-21T03:38:59.435Z,24.92
2018-07-21T03:39:25.579Z,24.95
2018-07-21T03:39:51.765Z,24.93
2018-07-21T03:40:17.904Z,25.01
2018-07-21T03:40:44.092Z,24.92
2018-07-21T03:41:10.278Z,25.03
2018-07-21T03:41:36.427Z,24.91
2018-07-21T03:42:02.585Z,24.89
2018-07-21T03:42:28.725Z,24.89
2018-07-21T03:42:54.865Z,24.99
2018-07-21T03:43:21.008Z,24.88
2018-07-21T03:43:47.150Z,25.01
2018-07-21T03:44:13.285Z,25.03
2018-07-21T03:44:39.456Z,24.95
2018-07-21T03:45:05.616Z,24.89
2018-07-21T03:45:31.765Z,24.99
2018-07-21T03:45:57.900Z,24.93
2018-07-21T03:46:24.065Z,24.95
2018-07-21T03:46:50.206Z,24.92
2018-07-21T03:47:16.340Z,24.95
2018-07-21T03:47:42.479Z,24.89
2018-07-21T03:48:08.617Z,24.95
2018-07-21T03:48:34.763Z,25.04
2018-07-21T03:49:00.918Z,25.03
2018-07-21T03:49:27.075Z,25.03
2018-07-21T03:49:53.226Z,24.99
2018-07-21T03:50:19.383Z,24.99
2018-07-21T03:50:45.523Z,25.01
2018-07-21T03:51:11.694Z,25.06
2018-07-21T03:51:37.842Z,24.99
2018-07-21T03:52:03.985Z,25.08
2018-07-21T03:52:30.129Z,24.99
2018-07-21T03:52:56.271Z,25.06
2018-07-21T03:53:22.410Z,25.14
2018-07-21T03:53:48.547Z,25.14
2018-07-21T03:54:14.724Z,25.16
2018-07-21T03:54:40.887Z,25.13
2018-07-21T03:55:07.054Z,25.14
2018-07-21T03:55:33.186Z,25.17
2018-07-21T03:55:59.352Z,25.14
2018-07-21T03:56:25.507Z,25.1
2018-07-21T03:56:51.648Z,25.11
2018-07-21T03:57:17.792Z,25.14
2018-07-21T03:57:43.931Z,25.13
2018-07-21T03:58:10.065Z,25.17
2018-07-21T03:58:36.212Z,25.14
2018-07-21T03:59:02.352Z,25.11
2018-07-21T03:59:28.494Z,25.13
2018-07-21T03:59:54.630Z,25.17
2018-07-21T04:00:20.798Z,25.25
2018-07-21T04:00:46.985Z,25.16
2018-07-21T04:01:13.144Z,25.11
2018-07-21T04:01:39.286Z,25.16
2018-07-21T04:02:05.426Z,25.14
2018-07-21T04:02:31.565Z,25.18
2018-07-21T04:02:57.702Z,25.16
2018-07-21T04:03:23.836Z,25.13
2018-07-21T04:03:49.976Z,25.13
2018-07-21T04:04:16.136Z,25.14
2018-07-21T04:04:42.310Z,25.13
2018-07-21T04:05:08.444Z,25.21
2018-07-21T04:05:34.611Z,25.18
2018-07-21T04:06:00.752Z,25.06
2018-07-21T04:06:26.913Z,24.89
2018-07-21T04:06:53.051Z,24.89
2018-07-21T04:07:19.214Z,24.8
2018-07-21T04:07:45.346Z,24.73
2018-07-21T04:08:11.490Z,24.69
2018-07-21T04:08:37.634Z,24.66
2018-07-21T04:09:03.865Z,24.7
2018-07-21T04:09:29.939Z,24.7
2018-07-21T04:09:56.073Z,24.7
2018-07-21T04:10:22.205Z,24.65
2018-07-21T04:10:48.359Z,24.66
2018-07-21T04:11:14.492Z,24.61
2018-07-21T04:11:40.656Z,24.54
2018-07-21T04:12:06.792Z,24.61
2018-07-21T04:12:32.929Z,24.58
2018-07-21T04:12:59.093Z,24.6
2018-07-21T04:13:25.232Z,24.63
2018-07-21T04:13:51.381Z,24.66
2018-07-21T04:14:17.520Z,24.68
2018-07-21T04:14:43.657Z,24.66
2018-07-21T04:15:09.796Z,24.66
2018-07-21T04:15:35.930Z,24.69
2018-07-21T04:16:02.074Z,24.63
2018-07-21T04:16:28.240Z,24.65
2018-07-21T04:16:54.354Z,24.66
2018-07-21T04:17:20.554Z,24.7
2018-07-21T04:17:46.696Z,24.68
2018-07-21T04:18:12.853Z,24.7
2018-07-21T04:18:38.994Z,24.7
2018-07-21T04:19:05.161Z,24.66
2018-07-21T04:19:31.319Z,24.68
2018-07-21T04:19:57.463Z,24.69
2018-07-21T04:20:23.623Z,24.7
2018-07-21T04:20:49.767Z,24.8
2018-07-21T04:21:15.901Z,24.7
2018-07-21T04:21:42.047Z,24.74
2018-07-21T04:22:08.207Z,24.8
2018-07-21T04:22:34.371Z,24.8
2018-07-21T04:23:00.530Z,24.76
2018-07-21T04:23:26.696Z,24.78
2018-07-21T04:23:52.837Z,24.81
2018-07-21T04:24:19.044Z,24.84
2018-07-21T04:24:45.120Z,24.8
2018-07-21T04:25:11.306Z,24.85
2018-07-21T04:25:37.470Z,24.89
2018-07-21T04:26:03.607Z,24.85
2018-07-21T04:26:29.748Z,24.81
2018-07-21T04:26:55.887Z,24.81
2018-07-21T04:27:22.023Z,24.88
2018-07-21T04:27:48.171Z,24.85
2018-07-21T04:28:14.327Z,24.89
2018-07-21T04:28:40.488Z,24.8
2018-07-21T04:29:06.653Z,24.85
2018-07-21T04:29:32.797Z,24.84
2018-07-21T04:29:58.958Z,24.81
2018-07-21T04:30:25.105Z,24.81
2018-07-21T04:30:51.259Z,24.85
2018-07-21T04:31:17.401Z,24.76
2018-07-21T04:31:43.534Z,24.8
2018-07-21T04:32:09.673Z,24.88
2018-07-21T04:32:35.848Z,24.77
2018-07-21T04:33:01.986Z,24.78
2018-07-21T04:33:28.127Z,24.7
2018-07-21T04:33:54.269Z,24.69
2018-07-21T04:34:20.416Z,24.66
2018-07-21T04:34:46.547Z,24.68
2018-07-21T04:35:12.715Z,24.66
2018-07-21T04:35:38.848Z,24.73
2018-07-21T04:36:04.988Z,24.68
2018-07-21T04:36:31.129Z,24.7
2018-07-21T04:36:57.268Z,24.66
2018-07-21T04:37:23.406Z,24.77
2018-07-21T04:37:49.567Z,24.76
2018-07-21T04:38:15.716Z,24.76
2018-07-21T04:38:41.882Z,24.68
2018-07-21T04:39:08.017Z,24.77
2018-07-21T04:39:34.159Z,24.69
2018-07-21T04:40:00.302Z,24.69
2018-07-21T04:40:26.437Z,24.77
2018-07-21T04:40:52.581Z,24.78
2018-07-21T04:41:18.723Z,24.78
2018-07-21T04:41:44.868Z,24.78
2018-07-21T04:42:11.031Z,24.84
2018-07-21T04:42:37.166Z,24.8
2018-07-21T04:43:03.313Z,24.86
2018-07-21T04:43:29.476Z,24.85
2018-07-21T04:43:55.620Z,24.88
2018-07-21T04:44:21.755Z,24.85
2018-07-21T04:44:47.895Z,24.86
2018-07-21T04:45:14.042Z,24.91
2018-07-21T04:45:40.198Z,24.92
2018-07-21T04:46:06.333Z,24.84
2018-07-21T04:46:32.478Z,24.86
2018-07-21T04:46:58.614Z,24.85
2018-07-21T04:47:24.756Z,24.88
2018-07-21T04:47:50.920Z,24.85
2018-07-21T04:48:17.061Z,24.92
2018-07-21T04:48:43.204Z,24.88
2018-07-21T04:49:09.342Z,24.93
2018-07-21T04:49:35.481Z,24.89
2018-07-21T04:50:01.729Z,24.96
2018-07-21T04:50:28.121Z,24.89
2018-07-21T04:50:54.281Z,24.95
2018-07-21T04:51:20.420Z,24.81
2018-07-21T04:51:46.559Z,24.88
2018-07-21T04:52:12.705Z,24.92
2018-07-21T04:52:38.843Z,24.95
2018-07-21T04:53:04.977Z,24.92
2018-07-21T04:53:31.112Z,24.91
2018-07-21T04:53:57.284Z,24.95
2018-07-21T04:54:23.385Z,24.91
2018-07-21T04:54:49.555Z,24.93
2018-07-21T04:55:15.709Z,24.89
2018-07-21T04:55:41.857Z,24.92
2018-07-21T04:56:08.000Z,24.92
2018-07-21T04:56:34.139Z,24.85
2018-07-21T04:57:00.280Z,24.85
2018-07-21T04:57:26.435Z,24.81
2018-07-21T04:57:52.585Z,24.73
2018-07-21T04:58:18.750Z,24.77
2018-07-21T04:58:44.890Z,24.76
2018-07-21T04:59:11.032Z,24.68
2018-07-21T04:59:37.191Z,24.7
2018-07-21T05:00:03.327Z,24.69
2018-07-21T05:00:29.473Z,24.7
2018-07-21T05:00:55.787Z,24.73
2018-07-21T05:01:21.785Z,24.8
2018-07-21T05:01:47.906Z,24.77
2018-07-21T05:02:14.068Z,24.84
2018-07-21T05:02:40.209Z,24.84
2018-07-21T05:03:06.349Z,24.88
2018-07-21T05:03:32.485Z,24.91
2018-07-21T05:03:58.624Z,24.86
2018-07-21T05:04:24.761Z,24.85
2018-07-21T05:04:50.908Z,24.86
2018-07-21T05:05:17.046Z,24.91
2018-07-21T05:05:43.184Z,24.86
2018-07-21T05:06:09.332Z,24.98
2018-07-21T05:06:35.463Z,24.86
2018-07-21T05:07:01.595Z,24.95
2018-07-21T05:07:27.791Z,24.89
2018-07-21T05:07:53.884Z,24.81
2018-07-21T05:08:20.028Z,24.76
2018-07-21T05:08:46.176Z,24.65
2018-07-21T05:09:12.308Z,24.66
2018-07-21T05:09:38.454Z,24.69
2018-07-21T05:10:04.592Z,24.69
2018-07-21T05:10:30.733Z,24.66
2018-07-21T05:10:56.869Z,24.66
2018-07-21T05:11:23.005Z,24.69
2018-07-21T05:11:49.147Z,24.84
2018-07-21T05:12:15.285Z,24.81
2018-07-21T05:12:41.422Z,24.74
2018-07-21T05:13:07.563Z,24.66
2018-07-21T05:13:33.702Z,24.69
2018-07-21T05:13:59.864Z,24.65
2018-07-21T05:14:26.007Z,24.68
2018-07-21T05:14:52.172Z,24.58
2018-07-21T05:15:18.317Z,24.57
2018-07-21T05:15:44.452Z,24.65
2018-07-21T05:16:10.591Z,24.58
2018-07-21T05:16:36.725Z,24.7
2018-07-21T05:17:02.869Z,24.6
2018-07-21T05:17:29.028Z,24.65
2018-07-21T05:17:55.172Z,24.57
2018-07-21T05:18:21.362Z,24.66
2018-07-21T05:18:47.465Z,24.66
2018-07-21T05:19:13.604Z,24.7
2018-07-21T05:19:39.740Z,24.68
2018-07-21T05:20:05.952Z,24.61
2018-07-21T05:20:32.042Z,24.63
2018-07-21T05:20:58.186Z,24.65
2018-07-21T05:21:24.328Z,24.61
2018-07-21T05:21:50.480Z,24.66
2018-07-21T05:22:16.618Z,24.65
2018-07-21T05:22:42.783Z,24.76
2018-07-21T05:23:08.946Z,24.68
2018-07-21T05:23:35.091Z,24.8
2018-07-21T05:24:01.230Z,24.74
2018-07-21T05:24:27.392Z,24.77
2018-07-21T05:24:53.556Z,24.76
2018-07-21T05:25:19.708Z,24.74
2018-07-21T05:25:45.872Z,24.68
2018-07-21T05:26:12.016Z,24.77
2018-07-21T05:26:38.159Z,24.66
2018-07-21T05:27:04.299Z,24.73
2018-07-21T05:27:30.437Z,24.65
2018-07-21T05:27:56.579Z,24.73
2018-07-21T05:28:22.743Z,24.68
2018-07-21T05:28:48.885Z,24.65
2018-07-21T05:29:15.019Z,24.69
2018-07-21T05:29:41.157Z,24.74
2018-07-21T05:30:07.316Z,24.77
2018-07-21T05:30:33.460Z,24.66
2018-07-21T05:30:59.596Z,24.7
2018-07-21T05:31:25.733Z,24.76
2018-07-21T05:31:51.874Z,24.66
2018-07-21T05:32:18.015Z,24.69
2018-07-21T05:32:44.170Z,24.74
2018-07-21T05:33:10.337Z,24.65
2018-07-21T05:33:36.614Z,24.66
2018-07-21T05:34:02.621Z,24.69
2018-07-21T05:34:28.762Z,24.66
2018-07-21T05:34:54.895Z,24.65
2018-07-21T05:35:21.058Z,24.66
2018-07-21T05:35:47.195Z,24.66
2018-07-21T05:36:13.338Z,24.7
2018-07-21T05:36:39.474Z,24.8
2018-07-21T05:37:05.615Z,24.76
2018-07-21T05:37:31.778Z,24.73
2018-07-21T05:37:57.917Z,24.7
2018-07-21T05:38:24.054Z,24.78